sensor_id;sensor_type;location;lat;lon;timestamp;temperature;humidity
15384;DHT22;7790;53.022;12.968;2022-10-22T00:02:14;21.10;52.10
15384;DHT22;7790;53.022;12.968;2022-10-22T00:06:19;21.10;52.10
15384;DHT22;7790;53.022;12.968;2022-10-22T00:10:20;21.10;52.10
15384;DHT22;7790;53.022;12.968;2022-10-22T00:14:21;21.00;52.10
15384;DHT22;7790;53.022;12.968;2022-10-22T00:18:22;21.00;52.10
15384;DHT22;7790;53.022;12.968;2022-10-22T00:22:22;21.00;52.10
15384;DHT22;7790;53.022;12.968;2022-10-22T00:26:23;21.00;52.20
15384;DHT22;7790;53.022;12.968;2022-10-22T00:30:24;21.00;52.20
15384;DHT22;7790;53.022;12.968;2022-10-22T00:34:25;21.00;52.20
15384;DHT22;7790;53.022;12.968;2022-10-22T00:38:26;20.90;52.20
15384;DHT22;7790;53.022;12.968;2022-10-22T00:42:27;20.90;52.20
15384;DHT22;7790;53.022;12.968;2022-10-22T00:46:31;20.90;52.20
15384;DHT22;7790;53.022;12.968;2022-10-22T00:50:53;20.90;52.20
15384;DHT22;7790;53.022;12.968;2022-10-22T00:54:59;20.90;52.30
15384;DHT22;7790;53.022;12.968;2022-10-22T00:59:01;20.90;52.20
15384;DHT22;7790;53.022;12.968;2022-10-22T01:03:02;20.80;52.20
15384;DHT22;7790;53.022;12.968;2022-10-22T01:07:04;20.80;52.20
15384;DHT22;7790;53.022;12.968;2022-10-22T01:32:42;20.70;52.40
15384;DHT22;7790;53.022;12.968;2022-10-22T01:36:44;20.70;52.40
15384;DHT22;7790;53.022;12.968;2022-10-22T01:40:46;20.70;52.50
15384;DHT22;7790;53.022;12.968;2022-10-22T01:44:47;20.70;52.50
15384;DHT22;7790;53.022;12.968;2022-10-22T01:57:13;20.60;52.50
15384;DHT22;7790;53.022;12.968;2022-10-22T02:01:39;20.60;52.50
15384;DHT22;7790;53.022;12.968;2022-10-22T02:05:45;20.60;52.50
15384;DHT22;7790;53.022;12.968;2022-10-22T02:09:48;20.60;52.60
15384;DHT22;7790;53.022;12.968;2022-10-22T02:13:54;20.60;52.60
15384;DHT22;7790;53.022;12.968;2022-10-22T02:17:57;20.60;52.60
15384;DHT22;7790;53.022;12.968;2022-10-22T02:21:59;20.50;52.60
15384;DHT22;7790;53.022;12.968;2022-10-22T02:26:08;20.50;52.60
15384;DHT22;7790;53.022;12.968;2022-10-22T02:30:19;20.50;52.70
15384;DHT22;7790;53.022;12.968;2022-10-22T02:34:22;20.50;52.60
15384;DHT22;7790;53.022;12.968;2022-10-22T02:38:26;20.50;52.70
15384;DHT22;7790;53.022;12.968;2022-10-22T02:42:27;20.50;52.80
15384;DHT22;7790;53.022;12.968;2022-10-22T02:46:29;20.50;52.70
15384;DHT22;7790;53.022;12.968;2022-10-22T02:50:30;20.40;52.70
15384;DHT22;7790;53.022;12.968;2022-10-22T02:54:31;20.40;52.80
15384;DHT22;7790;53.022;12.968;2022-10-22T02:58:31;20.40;52.80
15384;DHT22;7790;53.022;12.968;2022-10-22T03:02:32;20.40;52.80
15384;DHT22;7790;53.022;12.968;2022-10-22T03:06:33;20.40;52.80
15384;DHT22;7790;53.022;12.968;2022-10-22T03:10:34;20.40;52.90
15384;DHT22;7790;53.022;12.968;2022-10-22T03:14:35;20.40;52.90
15384;DHT22;7790;53.022;12.968;2022-10-22T03:18:36;20.40;52.90
15384;DHT22;7790;53.022;12.968;2022-10-22T03:22:38;20.40;52.90
15384;DHT22;7790;53.022;12.968;2022-10-22T03:26:40;20.40;52.90
15384;DHT22;7790;53.022;12.968;2022-10-22T03:30:41;20.30;53.00
15384;DHT22;7790;53.022;12.968;2022-10-22T03:34:42;20.40;53.00
15384;DHT22;7790;53.022;12.968;2022-10-22T03:38:43;20.30;53.00
15384;DHT22;7790;53.022;12.968;2022-10-22T03:42:44;20.30;53.00
15384;DHT22;7790;53.022;12.968;2022-10-22T03:46:45;20.30;53.50
15384;DHT22;7790;53.022;12.968;2022-10-22T03:50:46;20.30;53.00
15384;DHT22;7790;53.022;12.968;2022-10-22T03:54:47;20.30;53.00
15384;DHT22;7790;53.022;12.968;2022-10-22T03:58:47;20.30;53.00
15384;DHT22;7790;53.022;12.968;2022-10-22T04:02:48;20.20;53.10
15384;DHT22;7790;53.022;12.968;2022-10-22T04:06:49;20.20;53.00
15384;DHT22;7790;53.022;12.968;2022-10-22T04:10:50;20.20;53.10
15384;DHT22;7790;53.022;12.968;2022-10-22T04:14:51;20.20;53.10
15384;DHT22;7790;53.022;12.968;2022-10-22T04:18:52;20.20;53.20
15384;DHT22;7790;53.022;12.968;2022-10-22T04:22:53;20.20;53.60
15384;DHT22;7790;53.022;12.968;2022-10-22T04:26:54;20.20;53.10
15384;DHT22;7790;53.022;12.968;2022-10-22T04:30:55;20.20;53.10
15384;DHT22;7790;53.022;12.968;2022-10-22T04:34:56;20.20;53.20
15384;DHT22;7790;53.022;12.968;2022-10-22T04:38:58;20.20;53.20
15384;DHT22;7790;53.022;12.968;2022-10-22T04:43:00;20.20;53.20
15384;DHT22;7790;53.022;12.968;2022-10-22T04:47:00;20.10;53.10
15384;DHT22;7790;53.022;12.968;2022-10-22T04:51:01;20.10;53.20
15384;DHT22;7790;53.022;12.968;2022-10-22T04:55:02;20.10;53.20
15384;DHT22;7790;53.022;12.968;2022-10-22T04:59:05;20.10;53.20
15384;DHT22;7790;53.022;12.968;2022-10-22T05:03:06;20.10;53.20
15384;DHT22;7790;53.022;12.968;2022-10-22T05:07:07;20.10;53.30
15384;DHT22;7790;53.022;12.968;2022-10-22T05:11:16;20.10;53.30
15384;DHT22;7790;53.022;12.968;2022-10-22T05:15:17;20.10;53.30
15384;DHT22;7790;53.022;12.968;2022-10-22T05:19:23;20.10;53.30
15384;DHT22;7790;53.022;12.968;2022-10-22T05:23:24;20.10;53.30
15384;DHT22;7790;53.022;12.968;2022-10-22T05:27:25;20.10;53.30
15384;DHT22;7790;53.022;12.968;2022-10-22T05:31:26;20.10;53.40
15384;DHT22;7790;53.022;12.968;2022-10-22T05:35:28;20.10;53.30
15384;DHT22;7790;53.022;12.968;2022-10-22T05:39:29;20.00;53.30
15384;DHT22;7790;53.022;12.968;2022-10-22T05:43:30;20.00;53.30
15384;DHT22;7790;53.022;12.968;2022-10-22T05:47:31;20.00;53.30
15384;DHT22;7790;53.022;12.968;2022-10-22T05:51:34;20.00;53.40
15384;DHT22;7790;53.022;12.968;2022-10-22T05:55:36;20.00;53.40
15384;DHT22;7790;53.022;12.968;2022-10-22T05:59:37;20.00;53.40
15384;DHT22;7790;53.022;12.968;2022-10-22T06:03:37;20.00;53.40
15384;DHT22;7790;53.022;12.968;2022-10-22T06:07:38;20.00;53.50
15384;DHT22;7790;53.022;12.968;2022-10-22T06:11:40;20.00;53.50
15384;DHT22;7790;53.022;12.968;2022-10-22T06:15:41;20.00;53.50
15384;DHT22;7790;53.022;12.968;2022-10-22T06:19:42;20.00;53.50
15384;DHT22;7790;53.022;12.968;2022-10-22T06:23:43;20.00;53.70
15384;DHT22;7790;53.022;12.968;2022-10-22T06:27:48;20.00;53.60
15384;DHT22;7790;53.022;12.968;2022-10-22T06:31:50;20.00;53.70
15384;DHT22;7790;53.022;12.968;2022-10-22T06:35:51;20.00;53.70
15384;DHT22;7790;53.022;12.968;2022-10-22T06:39:51;20.00;53.70
15384;DHT22;7790;53.022;12.968;2022-10-22T06:43:53;20.00;53.80
15384;DHT22;7790;53.022;12.968;2022-10-22T06:47:54;20.00;53.80
15384;DHT22;7790;53.022;12.968;2022-10-22T06:51:55;20.00;54.00
15384;DHT22;7790;53.022;12.968;2022-10-22T06:55:56;20.00;54.10
15384;DHT22;7790;53.022;12.968;2022-10-22T06:59:57;20.00;54.40
15384;DHT22;7790;53.022;12.968;2022-10-22T07:03:58;20.00;54.60
15384;DHT22;7790;53.022;12.968;2022-10-22T07:07:58;20.00;54.70
15384;DHT22;7790;53.022;12.968;2022-10-22T07:11:59;20.00;54.90
15384;DHT22;7790;53.022;12.968;2022-10-22T07:16:01;19.90;54.90
15384;DHT22;7790;53.022;12.968;2022-10-22T07:20:02;20.00;55.00
15384;DHT22;7790;53.022;12.968;2022-10-22T07:24:04;19.90;55.00
15384;DHT22;7790;53.022;12.968;2022-10-22T07:28:05;20.00;55.20
15384;DHT22;7790;53.022;12.968;2022-10-22T07:32:05;20.00;55.30
15384;DHT22;7790;53.022;12.968;2022-10-22T07:36:09;20.00;55.40
15384;DHT22;7790;53.022;12.968;2022-10-22T07:40:10;19.90;55.30
15384;DHT22;7790;53.022;12.968;2022-10-22T07:44:11;19.90;55.40
15384;DHT22;7790;53.022;12.968;2022-10-22T07:48:12;19.90;55.40
15384;DHT22;7790;53.022;12.968;2022-10-22T07:52:13;19.90;55.40
15384;DHT22;7790;53.022;12.968;2022-10-22T07:56:14;19.90;55.50
15384;DHT22;7790;53.022;12.968;2022-10-22T08:00:15;19.90;55.50
15384;DHT22;7790;53.022;12.968;2022-10-22T08:04:19;19.90;55.50
15384;DHT22;7790;53.022;12.968;2022-10-22T08:08:20;19.90;55.50
15384;DHT22;7790;53.022;12.968;2022-10-22T08:12:21;19.90;55.50
15384;DHT22;7790;53.022;12.968;2022-10-22T08:16:22;19.90;55.60
15384;DHT22;7790;53.022;12.968;2022-10-22T08:20:23;19.90;55.50
15384;DHT22;7790;53.022;12.968;2022-10-22T08:24:24;19.90;55.50
15384;DHT22;7790;53.022;12.968;2022-10-22T08:28:26;19.90;55.40
15384;DHT22;7790;53.022;12.968;2022-10-22T08:32:29;19.90;55.30
15384;DHT22;7790;53.022;12.968;2022-10-22T08:36:30;19.90;55.40
15384;DHT22;7790;53.022;12.968;2022-10-22T08:40:36;19.90;55.40
15384;DHT22;7790;53.022;12.968;2022-10-22T08:49:06;19.90;55.20
15384;DHT22;7790;53.022;12.968;2022-10-22T08:53:35;20.00;55.10
15384;DHT22;7790;53.022;12.968;2022-10-22T08:58:04;20.00;55.10
15384;DHT22;7790;53.022;12.968;2022-10-22T09:06:30;20.30;55.60
15384;DHT22;7790;53.022;12.968;2022-10-22T09:10:35;20.40;55.50
15384;DHT22;7790;53.022;12.968;2022-10-22T09:14:36;20.60;55.40
15384;DHT22;7790;53.022;12.968;2022-10-22T09:27:29;20.90;55.20
15384;DHT22;7790;53.022;12.968;2022-10-22T09:31:31;21.00;55.10
15384;DHT22;7790;53.022;12.968;2022-10-22T09:35:44;21.10;55.00
15384;DHT22;7790;53.022;12.968;2022-10-22T09:39:50;21.10;54.80
15384;DHT22;7790;53.022;12.968;2022-10-22T09:43:51;21.20;54.60
15384;DHT22;7790;53.022;12.968;2022-10-22T09:48:10;21.30;54.50
15384;DHT22;7790;53.022;12.968;2022-10-22T09:52:26;21.30;54.20
15384;DHT22;7790;53.022;12.968;2022-10-22T09:56:34;21.40;54.50
15384;DHT22;7790;53.022;12.968;2022-10-22T10:00:38;21.50;54.10
15384;DHT22;7790;53.022;12.968;2022-10-22T10:04:48;21.50;54.00
15384;DHT22;7790;53.022;12.968;2022-10-22T10:08:49;21.60;53.80
15384;DHT22;7790;53.022;12.968;2022-10-22T10:12:53;21.60;53.60
15384;DHT22;7790;53.022;12.968;2022-10-22T10:26:00;21.70;53.30
15384;DHT22;7790;53.022;12.968;2022-10-22T10:30:18;21.70;53.20
15384;DHT22;7790;53.022;12.968;2022-10-22T10:39:10;21.80;53.00
15384;DHT22;7790;53.022;12.968;2022-10-22T11:00:31;21.50;52.20
15384;DHT22;7790;53.022;12.968;2022-10-22T11:09:24;21.50;51.30
15384;DHT22;7790;53.022;12.968;2022-10-22T11:13:30;21.50;51.50
15384;DHT22;7790;53.022;12.968;2022-10-22T11:17:44;21.50;51.50
15384;DHT22;7790;53.022;12.968;2022-10-22T11:22:08;21.60;51.50
15384;DHT22;7790;53.022;12.968;2022-10-22T11:30:31;21.70;51.40
15384;DHT22;7790;53.022;12.968;2022-10-22T11:34:44;21.70;51.30
15384;DHT22;7790;53.022;12.968;2022-10-22T11:38:47;21.80;51.30
15384;DHT22;7790;53.022;12.968;2022-10-22T11:43:27;21.80;51.40
15384;DHT22;7790;53.022;12.968;2022-10-22T11:47:33;21.80;51.30
15384;DHT22;7790;53.022;12.968;2022-10-22T11:51:36;21.80;51.20
15384;DHT22;7790;53.022;12.968;2022-10-22T11:55:41;21.80;51.10
15384;DHT22;7790;53.022;12.968;2022-10-22T12:03:52;21.80;51.20
15384;DHT22;7790;53.022;12.968;2022-10-22T12:08:19;21.80;51.20
15384;DHT22;7790;53.022;12.968;2022-10-22T12:12:19;21.70;51.20
15384;DHT22;7790;53.022;12.968;2022-10-22T12:16:22;21.80;51.30
15384;DHT22;7790;53.022;12.968;2022-10-22T12:20:25;21.80;51.30
15384;DHT22;7790;53.022;12.968;2022-10-22T12:24:30;21.70;51.40
15384;DHT22;7790;53.022;12.968;2022-10-22T12:28:38;21.70;51.40
15384;DHT22;7790;53.022;12.968;2022-10-22T12:32:40;21.70;51.50
15384;DHT22;7790;53.022;12.968;2022-10-22T12:36:41;21.70;51.60
15384;DHT22;7790;53.022;12.968;2022-10-22T12:40:42;21.70;51.60
15384;DHT22;7790;53.022;12.968;2022-10-22T12:44:44;21.70;51.70
15384;DHT22;7790;53.022;12.968;2022-10-22T12:48:45;21.70;51.70
15384;DHT22;7790;53.022;12.968;2022-10-22T12:52:46;21.70;51.80
15384;DHT22;7790;53.022;12.968;2022-10-22T12:56:48;21.70;51.70
15384;DHT22;7790;53.022;12.968;2022-10-22T13:00:54;21.70;51.70
15384;DHT22;7790;53.022;12.968;2022-10-22T13:05:21;21.70;51.80
15384;DHT22;7790;53.022;12.968;2022-10-22T13:09:23;21.70;51.80
15384;DHT22;7790;53.022;12.968;2022-10-22T13:13:32;21.70;51.90
15384;DHT22;7790;53.022;12.968;2022-10-22T13:17:40;21.60;51.90
15384;DHT22;7790;53.022;12.968;2022-10-22T13:21:47;21.60;51.90
15384;DHT22;7790;53.022;12.968;2022-10-22T13:26:00;21.60;52.00
15384;DHT22;7790;53.022;12.968;2022-10-22T13:30:08;21.60;52.10
15384;DHT22;7790;53.022;12.968;2022-10-22T13:34:15;21.50;52.10
15384;DHT22;7790;53.022;12.968;2022-10-22T13:38:25;21.50;52.20
15384;DHT22;7790;53.022;12.968;2022-10-22T13:42:26;21.50;52.20
15384;DHT22;7790;53.022;12.968;2022-10-22T13:46:27;21.50;52.30
15384;DHT22;7790;53.022;12.968;2022-10-22T13:50:29;21.50;52.30
15384;DHT22;7790;53.022;12.968;2022-10-22T13:54:29;21.40;52.40
15384;DHT22;7790;53.022;12.968;2022-10-22T13:58:30;21.40;52.50
15384;DHT22;7790;53.022;12.968;2022-10-22T14:02:31;21.40;52.50
15384;DHT22;7790;53.022;12.968;2022-10-22T14:06:32;21.40;52.60
15384;DHT22;7790;53.022;12.968;2022-10-22T14:10:33;21.30;52.60
15384;DHT22;7790;53.022;12.968;2022-10-22T14:14:34;21.30;52.70
15384;DHT22;7790;53.022;12.968;2022-10-22T14:18:36;21.30;52.70
15384;DHT22;7790;53.022;12.968;2022-10-22T14:22:37;21.30;52.80
15384;DHT22;7790;53.022;12.968;2022-10-22T14:26:38;21.30;52.90
15384;DHT22;7790;53.022;12.968;2022-10-22T14:30:39;21.20;52.90
15384;DHT22;7790;53.022;12.968;2022-10-22T14:34:40;21.30;52.90
15384;DHT22;7790;53.022;12.968;2022-10-22T14:38:42;21.20;53.00
15384;DHT22;7790;53.022;12.968;2022-10-22T14:42:45;21.20;53.00
15384;DHT22;7790;53.022;12.968;2022-10-22T14:46:46;21.20;53.10
15384;DHT22;7790;53.022;12.968;2022-10-22T14:50:47;21.20;53.10
15384;DHT22;7790;53.022;12.968;2022-10-22T14:54:48;21.20;53.10
15384;DHT22;7790;53.022;12.968;2022-10-22T14:58:49;21.20;53.20
15384;DHT22;7790;53.022;12.968;2022-10-22T15:02:50;21.20;53.20
15384;DHT22;7790;53.022;12.968;2022-10-22T15:06:51;21.20;53.20
15384;DHT22;7790;53.022;12.968;2022-10-22T15:11:13;21.10;53.30
15384;DHT22;7790;53.022;12.968;2022-10-22T15:15:14;21.10;53.30
15384;DHT22;7790;53.022;12.968;2022-10-22T15:19:15;21.10;53.50
15384;DHT22;7790;53.022;12.968;2022-10-22T15:23:16;21.10;53.50
15384;DHT22;7790;53.022;12.968;2022-10-22T15:27:17;21.00;53.50
15384;DHT22;7790;53.022;12.968;2022-10-22T15:35:42;21.00;53.70
15384;DHT22;7790;53.022;12.968;2022-10-22T15:39:43;21.00;53.70
15384;DHT22;7790;53.022;12.968;2022-10-22T15:43:43;21.00;53.60
15384;DHT22;7790;53.022;12.968;2022-10-22T15:47:46;21.00;53.90
15384;DHT22;7790;53.022;12.968;2022-10-22T15:51:48;21.00;53.60
15384;DHT22;7790;53.022;12.968;2022-10-22T15:55:48;21.00;53.40
15384;DHT22;7790;53.022;12.968;2022-10-22T15:59:49;21.00;53.40
15384;DHT22;7790;53.022;12.968;2022-10-22T16:03:52;21.10;53.40
15384;DHT22;7790;53.022;12.968;2022-10-22T16:07:59;21.20;53.60
15384;DHT22;7790;53.022;12.968;2022-10-22T16:12:00;21.30;53.50
15384;DHT22;7790;53.022;12.968;2022-10-22T16:16:05;21.40;53.60
15384;DHT22;7790;53.022;12.968;2022-10-22T16:20:07;21.60;53.60
15384;DHT22;7790;53.022;12.968;2022-10-22T16:24:09;21.70;53.30
15384;DHT22;7790;53.022;12.968;2022-10-22T16:28:10;21.70;53.20
15384;DHT22;7790;53.022;12.968;2022-10-22T16:32:11;21.80;53.20
15384;DHT22;7790;53.022;12.968;2022-10-22T16:36:14;21.90;53.10
15384;DHT22;7790;53.022;12.968;2022-10-22T16:40:17;22.00;53.00
15384;DHT22;7790;53.022;12.968;2022-10-22T16:44:18;22.10;52.80
15384;DHT22;7790;53.022;12.968;2022-10-22T16:48:19;22.10;52.70
15384;DHT22;7790;53.022;12.968;2022-10-22T16:52:20;22.20;52.60
15384;DHT22;7790;53.022;12.968;2022-10-22T16:56:21;22.30;52.40
15384;DHT22;7790;53.022;12.968;2022-10-22T17:00:22;22.40;52.40
15384;DHT22;7790;53.022;12.968;2022-10-22T17:04:23;22.50;52.20
15384;DHT22;7790;53.022;12.968;2022-10-22T17:08:24;22.50;52.20
15384;DHT22;7790;53.022;12.968;2022-10-22T17:12:24;22.60;52.20
15384;DHT22;7790;53.022;12.968;2022-10-22T17:16:26;22.60;52.10
15384;DHT22;7790;53.022;12.968;2022-10-22T17:20:26;22.60;52.10
15384;DHT22;7790;53.022;12.968;2022-10-22T17:24:27;22.60;52.10
15384;DHT22;7790;53.022;12.968;2022-10-22T17:28:28;22.70;52.10
15384;DHT22;7790;53.022;12.968;2022-10-22T17:32:29;22.80;52.00
15384;DHT22;7790;53.022;12.968;2022-10-22T17:36:30;23.00;52.00
15384;DHT22;7790;53.022;12.968;2022-10-22T17:40:33;23.00;51.90
15384;DHT22;7790;53.022;12.968;2022-10-22T17:44:34;23.20;52.00
15384;DHT22;7790;53.022;12.968;2022-10-22T17:48:36;23.30;52.00
15384;DHT22;7790;53.022;12.968;2022-10-22T17:52:37;23.40;51.90
15384;DHT22;7790;53.022;12.968;2022-10-22T17:56:38;23.50;51.90
15384;DHT22;7790;53.022;12.968;2022-10-22T18:00:39;23.50;51.80
15384;DHT22;7790;53.022;12.968;2022-10-22T18:04:40;23.60;51.90
15384;DHT22;7790;53.022;12.968;2022-10-22T18:08:41;23.60;51.90
15384;DHT22;7790;53.022;12.968;2022-10-22T18:12:42;23.60;51.80
15384;DHT22;7790;53.022;12.968;2022-10-22T18:16:44;23.70;51.80
15384;DHT22;7790;53.022;12.968;2022-10-22T18:20:52;23.70;51.90
15384;DHT22;7790;53.022;12.968;2022-10-22T18:24:52;23.70;51.60
15384;DHT22;7790;53.022;12.968;2022-10-22T18:28:55;23.70;51.50
15384;DHT22;7790;53.022;12.968;2022-10-22T18:32:56;23.70;51.40
15384;DHT22;7790;53.022;12.968;2022-10-22T18:36:57;23.70;51.50
15384;DHT22;7790;53.022;12.968;2022-10-22T18:40:58;23.70;51.60
15384;DHT22;7790;53.022;12.968;2022-10-22T18:44:59;23.70;51.40
15384;DHT22;7790;53.022;12.968;2022-10-22T18:49:05;23.70;51.30
15384;DHT22;7790;53.022;12.968;2022-10-22T18:53:07;23.60;51.30
15384;DHT22;7790;53.022;12.968;2022-10-22T18:57:08;23.60;51.30
15384;DHT22;7790;53.022;12.968;2022-10-22T19:01:10;23.60;51.30
15384;DHT22;7790;53.022;12.968;2022-10-22T19:05:12;23.60;51.20
15384;DHT22;7790;53.022;12.968;2022-10-22T19:09:14;23.50;51.70
15384;DHT22;7790;53.022;12.968;2022-10-22T19:13:16;23.50;51.60
15384;DHT22;7790;53.022;12.968;2022-10-22T19:17:18;23.50;51.20
15384;DHT22;7790;53.022;12.968;2022-10-22T19:21:19;23.60;51.20
15384;DHT22;7790;53.022;12.968;2022-10-22T19:25:20;23.60;51.20
15384;DHT22;7790;53.022;12.968;2022-10-22T19:29:21;23.70;51.10
15384;DHT22;7790;53.022;12.968;2022-10-22T19:33:22;23.70;51.20
15384;DHT22;7790;53.022;12.968;2022-10-22T19:37:22;23.70;51.20
15384;DHT22;7790;53.022;12.968;2022-10-22T19:41:25;23.70;51.30
15384;DHT22;7790;53.022;12.968;2022-10-22T19:45:30;23.70;51.30
15384;DHT22;7790;53.022;12.968;2022-10-22T19:49:31;23.70;51.40
15384;DHT22;7790;53.022;12.968;2022-10-22T19:53:33;23.70;51.40
15384;DHT22;7790;53.022;12.968;2022-10-22T19:57:34;23.70;51.30
15384;DHT22;7790;53.022;12.968;2022-10-22T20:01:34;23.70;51.30
15384;DHT22;7790;53.022;12.968;2022-10-22T20:05:37;23.70;51.40
15384;DHT22;7790;53.022;12.968;2022-10-22T20:09:38;23.70;51.40
15384;DHT22;7790;53.022;12.968;2022-10-22T20:13:38;23.60;51.50
15384;DHT22;7790;53.022;12.968;2022-10-22T20:17:39;23.60;51.40
15384;DHT22;7790;53.022;12.968;2022-10-22T20:21:40;23.60;51.40
15384;DHT22;7790;53.022;12.968;2022-10-22T20:25:43;23.50;51.50
15384;DHT22;7790;53.022;12.968;2022-10-22T20:29:44;23.40;50.60
15384;DHT22;7790;53.022;12.968;2022-10-22T20:33:48;23.20;50.90
15384;DHT22;7790;53.022;12.968;2022-10-22T20:37:50;23.10;51.00
15384;DHT22;7790;53.022;12.968;2022-10-22T20:41:51;23.10;51.10
15384;DHT22;7790;53.022;12.968;2022-10-22T20:45:52;23.00;51.30
15384;DHT22;7790;53.022;12.968;2022-10-22T20:49:53;23.00;51.30
15384;DHT22;7790;53.022;12.968;2022-10-22T20:53:54;23.10;51.20
15384;DHT22;7790;53.022;12.968;2022-10-22T20:57:54;23.20;51.10
15384;DHT22;7790;53.022;12.968;2022-10-22T21:01:55;23.20;51.10
15384;DHT22;7790;53.022;12.968;2022-10-22T21:05:56;23.20;51.20
15384;DHT22;7790;53.022;12.968;2022-10-22T21:09:57;23.20;51.30
15384;DHT22;7790;53.022;12.968;2022-10-22T21:13:58;23.10;51.30
15384;DHT22;7790;53.022;12.968;2022-10-22T21:17:59;23.10;51.40
15384;DHT22;7790;53.022;12.968;2022-10-22T21:22:00;23.10;51.40
15384;DHT22;7790;53.022;12.968;2022-10-22T21:26:02;23.10;51.40
15384;DHT22;7790;53.022;12.968;2022-10-22T21:30:03;23.10;51.50
15384;DHT22;7790;53.022;12.968;2022-10-22T21:34:04;23.00;51.50
15384;DHT22;7790;53.022;12.968;2022-10-22T21:38:05;23.00;51.50
15384;DHT22;7790;53.022;12.968;2022-10-22T21:42:07;23.00;51.60
15384;DHT22;7790;53.022;12.968;2022-10-22T21:46:23;23.00;51.60
15384;DHT22;7790;53.022;12.968;2022-10-22T21:50:24;22.90;51.60
15384;DHT22;7790;53.022;12.968;2022-10-22T21:54:25;22.90;51.60
15384;DHT22;7790;53.022;12.968;2022-10-22T21:58:26;22.80;51.60
15384;DHT22;7790;53.022;12.968;2022-10-22T22:02:26;22.80;51.70
15384;DHT22;7790;53.022;12.968;2022-10-22T22:06:30;22.80;51.80
15384;DHT22;7790;53.022;12.968;2022-10-22T22:10:31;22.80;51.80
15384;DHT22;7790;53.022;12.968;2022-10-22T22:14:32;22.80;51.80
15384;DHT22;7790;53.022;12.968;2022-10-22T22:18:34;22.70;51.80
15384;DHT22;7790;53.022;12.968;2022-10-22T22:22:35;22.70;51.80
15384;DHT22;7790;53.022;12.968;2022-10-22T22:26:36;22.70;51.90
15384;DHT22;7790;53.022;12.968;2022-10-22T22:30:37;22.60;51.90
15384;DHT22;7790;53.022;12.968;2022-10-22T22:34:37;22.60;51.90
15384;DHT22;7790;53.022;12.968;2022-10-22T22:38:38;22.60;52.00
15384;DHT22;7790;53.022;12.968;2022-10-22T22:42:39;22.60;52.00
15384;DHT22;7790;53.022;12.968;2022-10-22T22:46:40;22.50;52.00
15384;DHT22;7790;53.022;12.968;2022-10-22T22:50:41;22.50;52.10
15384;DHT22;7790;53.022;12.968;2022-10-22T22:54:42;22.50;52.10
15384;DHT22;7790;53.022;12.968;2022-10-22T22:58:43;22.50;52.10
15384;DHT22;7790;53.022;12.968;2022-10-22T23:02:44;22.50;52.20
15384;DHT22;7790;53.022;12.968;2022-10-22T23:06:45;22.40;52.20
15384;DHT22;7790;53.022;12.968;2022-10-22T23:10:46;22.40;52.20
15384;DHT22;7790;53.022;12.968;2022-10-22T23:14:49;22.40;52.20
15384;DHT22;7790;53.022;12.968;2022-10-22T23:18:52;22.40;52.30
15384;DHT22;7790;53.022;12.968;2022-10-22T23:22:53;22.30;52.20
15384;DHT22;7790;53.022;12.968;2022-10-22T23:26:55;22.30;52.30
15384;DHT22;7790;53.022;12.968;2022-10-22T23:30:56;22.30;52.40
15384;DHT22;7790;53.022;12.968;2022-10-22T23:34:57;22.20;52.30
15384;DHT22;7790;53.022;12.968;2022-10-22T23:38:58;22.20;52.30
15384;DHT22;7790;53.022;12.968;2022-10-22T23:42:59;22.20;52.40
15384;DHT22;7790;53.022;12.968;2022-10-22T23:47:00;22.20;52.40
15384;DHT22;7790;53.022;12.968;2022-10-22T23:51:05;22.20;52.50
15384;DHT22;7790;53.022;12.968;2022-10-22T23:55:07;22.10;52.40
15384;DHT22;7790;53.022;12.968;2022-10-22T23:59:08;22.10;52.50
